sensor_id;sensor_type;location;lat;lon;timestamp;P1;durP1;ratioP1;P2;durP2;ratioP2
36377;SDS011;22402;42.746;23.606;2023-05-07T00:01:49;3.60;;;3.00;;
36377;SDS011;22402;42.746;23.606;2023-05-07T00:04:15;3.90;;;2.77;;
36377;SDS011;22402;42.746;23.606;2023-05-07T00:06:40;5.07;;;3.17;;
36377;SDS011;22402;42.746;23.606;2023-05-07T00:09:06;3.60;;;3.30;;
36377;SDS011;22402;42.746;23.606;2023-05-07T00:11:31;5.20;;;2.83;;
36377;SDS011;22402;42.746;23.606;2023-05-07T00:13:57;6.33;;;3.73;;
36377;SDS011;22402;42.746;23.606;2023-05-07T00:16:23;3.90;;;3.40;;
36377;SDS011;22402;42.746;23.606;2023-05-07T00:18:48;3.30;;;2.97;;
36377;SDS011;22402;42.746;23.606;2023-05-07T00:21:14;8.70;;;2.90;;
36377;SDS011;22402;42.746;23.606;2023-05-07T00:23:39;5.37;;;3.20;;
36377;SDS011;22402;42.746;23.606;2023-05-07T00:26:05;4.23;;;3.50;;
36377;SDS011;22402;42.746;23.606;2023-05-07T00:28:30;4.10;;;2.90;;
36377;SDS011;22402;42.746;23.606;2023-05-07T00:30:55;3.83;;;3.40;;
36377;SDS011;22402;42.746;23.606;2023-05-07T00:33:21;4.00;;;3.27;;
36377;SDS011;22402;42.746;23.606;2023-05-07T00:38:12;5.20;;;3.20;;
36377;SDS011;22402;42.746;23.606;2023-05-07T00:40:38;4.70;;;2.90;;
36377;SDS011;22402;42.746;23.606;2023-05-07T01:24:29;4.20;;;3.30;;
36377;SDS011;22402;42.746;23.606;2023-05-07T01:26:56;3.53;;;3.07;;
36377;SDS011;22402;42.746;23.606;2023-05-07T01:29:21;3.23;;;2.93;;
36377;SDS011;22402;42.746;23.606;2023-05-07T02:52:04;4.23;;;3.57;;
36377;SDS011;22402;42.746;23.606;2023-05-07T04:12:05;5.10;;;4.60;;
36377;SDS011;22402;42.746;23.606;2023-05-07T04:14:30;6.33;;;4.37;;
36377;SDS011;22402;42.746;23.606;2023-05-07T04:16:57;5.23;;;4.00;;
36377;SDS011;22402;42.746;23.606;2023-05-07T04:19:24;4.13;;;3.53;;
36377;SDS011;22402;42.746;23.606;2023-05-07T04:21:49;5.27;;;4.17;;
36377;SDS011;22402;42.746;23.606;2023-05-07T04:24:15;5.07;;;4.30;;
36377;SDS011;22402;42.746;23.606;2023-05-07T04:26:40;4.40;;;3.80;;
36377;SDS011;22402;42.746;23.606;2023-05-07T04:29:06;6.60;;;4.10;;
36377;SDS011;22402;42.746;23.606;2023-05-07T04:31:31;4.30;;;4.00;;
36377;SDS011;22402;42.746;23.606;2023-05-07T04:33:57;8.83;;;4.20;;
36377;SDS011;22402;42.746;23.606;2023-05-07T04:36:23;4.20;;;3.80;;
36377;SDS011;22402;42.746;23.606;2023-05-07T04:38:52;4.33;;;3.93;;
36377;SDS011;22402;42.746;23.606;2023-05-07T04:41:18;5.00;;;4.47;;
36377;SDS011;22402;42.746;23.606;2023-05-07T04:43:43;4.70;;;4.30;;
36377;SDS011;22402;42.746;23.606;2023-05-07T04:46:09;6.03;;;4.13;;
36377;SDS011;22402;42.746;23.606;2023-05-07T04:48:35;4.80;;;4.30;;
36377;SDS011;22402;42.746;23.606;2023-05-07T04:51:00;4.37;;;3.97;;
36377;SDS011;22402;42.746;23.606;2023-05-07T04:53:26;4.07;;;3.77;;
36377;SDS011;22402;42.746;23.606;2023-05-07T04:55:57;4.70;;;4.27;;
36377;SDS011;22402;42.746;23.606;2023-05-07T04:58:23;6.43;;;4.67;;
36377;SDS011;22402;42.746;23.606;2023-05-07T05:00:49;7.00;;;4.77;;
36377;SDS011;22402;42.746;23.606;2023-05-07T05:03:14;5.13;;;4.43;;
36377;SDS011;22402;42.746;23.606;2023-05-07T05:05:40;5.40;;;4.90;;
36377;SDS011;22402;42.746;23.606;2023-05-07T05:08:05;4.80;;;4.27;;
36377;SDS011;22402;42.746;23.606;2023-05-07T05:10:31;7.07;;;4.57;;
36377;SDS011;22402;42.746;23.606;2023-05-07T05:12:56;5.53;;;5.03;;
36377;SDS011;22402;42.746;23.606;2023-05-07T05:15:22;4.77;;;4.27;;
36377;SDS011;22402;42.746;23.606;2023-05-07T05:17:47;5.47;;;4.90;;
36377;SDS011;22402;42.746;23.606;2023-05-07T05:20:13;4.87;;;4.40;;
36377;SDS011;22402;42.746;23.606;2023-05-07T05:22:39;4.40;;;4.00;;
36377;SDS011;22402;42.746;23.606;2023-05-07T05:25:04;4.80;;;4.30;;
36377;SDS011;22402;42.746;23.606;2023-05-07T05:27:30;5.60;;;5.07;;
36377;SDS011;22402;42.746;23.606;2023-05-07T05:29:55;6.63;;;5.20;;
36377;SDS011;22402;42.746;23.606;2023-05-07T05:32:21;5.90;;;4.97;;
36377;SDS011;22402;42.746;23.606;2023-05-07T05:34:47;6.37;;;5.57;;
36377;SDS011;22402;42.746;23.606;2023-05-07T05:37:13;5.17;;;4.73;;
36377;SDS011;22402;42.746;23.606;2023-05-07T05:39:38;5.10;;;4.60;;
36377;SDS011;22402;42.746;23.606;2023-05-07T05:42:03;6.77;;;5.30;;
36377;SDS011;22402;42.746;23.606;2023-05-07T05:44:29;5.50;;;5.00;;
36377;SDS011;22402;42.746;23.606;2023-05-07T05:46:54;5.93;;;5.30;;
36377;SDS011;22402;42.746;23.606;2023-05-07T05:49:22;4.80;;;4.30;;
36377;SDS011;22402;42.746;23.606;2023-05-07T05:51:48;5.47;;;4.97;;
36377;SDS011;22402;42.746;23.606;2023-05-07T05:54:13;5.45;;;4.95;;
36377;SDS011;22402;42.746;23.606;2023-05-07T05:56:39;5.30;;;4.80;;
36377;SDS011;22402;42.746;23.606;2023-05-07T05:59:04;5.40;;;4.90;;
36377;SDS011;22402;42.746;23.606;2023-05-07T06:06:21;5.43;;;4.70;;
36377;SDS011;22402;42.746;23.606;2023-05-07T06:08:46;6.57;;;4.70;;
36377;SDS011;22402;42.746;23.606;2023-05-07T06:11:12;6.93;;;5.27;;
36377;SDS011;22402;42.746;23.606;2023-05-07T06:13:37;5.97;;;5.37;;
36377;SDS011;22402;42.746;23.606;2023-05-07T06:16:03;4.93;;;4.50;;
36377;SDS011;22402;42.746;23.606;2023-05-07T06:18:29;6.50;;;5.40;;
36377;SDS011;22402;42.746;23.606;2023-05-07T06:20:54;5.47;;;4.83;;
36377;SDS011;22402;42.746;23.606;2023-05-07T06:23:19;7.87;;;5.47;;
36377;SDS011;22402;42.746;23.606;2023-05-07T06:25:51;5.77;;;5.07;;
36377;SDS011;22402;42.746;23.606;2023-05-07T06:28:17;5.30;;;4.77;;
36377;SDS011;22402;42.746;23.606;2023-05-07T06:30:42;6.07;;;5.47;;
36377;SDS011;22402;42.746;23.606;2023-05-07T06:33:08;5.80;;;5.30;;
36377;SDS011;22402;42.746;23.606;2023-05-07T06:35:33;7.33;;;4.97;;
36377;SDS011;22402;42.746;23.606;2023-05-07T06:37:59;6.20;;;5.50;;
36377;SDS011;22402;42.746;23.606;2023-05-07T06:40:25;8.27;;;5.37;;
36377;SDS011;22402;42.746;23.606;2023-05-07T06:42:51;7.87;;;5.17;;
36377;SDS011;22402;42.746;23.606;2023-05-07T06:45:16;5.43;;;4.90;;
36377;SDS011;22402;42.746;23.606;2023-05-07T06:47:42;5.90;;;5.10;;
36377;SDS011;22402;42.746;23.606;2023-05-07T06:50:08;5.70;;;5.10;;
36377;SDS011;22402;42.746;23.606;2023-05-07T06:52:34;7.57;;;5.30;;
36377;SDS011;22402;42.746;23.606;2023-05-07T06:55:00;6.90;;;5.80;;
36377;SDS011;22402;42.746;23.606;2023-05-07T06:57:26;5.70;;;5.20;;
36377;SDS011;22402;42.746;23.606;2023-05-07T06:59:51;6.17;;;4.90;;
36377;SDS011;22402;42.746;23.606;2023-05-07T07:02:17;7.53;;;5.10;;
36377;SDS011;22402;42.746;23.606;2023-05-07T07:04:42;5.60;;;5.10;;
36377;SDS011;22402;42.746;23.606;2023-05-07T07:07:08;5.63;;;4.90;;
36377;SDS011;22402;42.746;23.606;2023-05-07T07:09:33;6.23;;;5.17;;
36377;SDS011;22402;42.746;23.606;2023-05-07T07:11:59;5.40;;;4.90;;
36377;SDS011;22402;42.746;23.606;2023-05-07T07:14:24;5.20;;;4.40;;
36377;SDS011;22402;42.746;23.606;2023-05-07T07:16:50;5.73;;;4.90;;
36377;SDS011;22402;42.746;23.606;2023-05-07T07:19:15;5.60;;;4.97;;
36377;SDS011;22402;42.746;23.606;2023-05-07T07:21:41;5.77;;;5.17;;
36377;SDS011;22402;42.746;23.606;2023-05-07T07:24:07;6.00;;;5.40;;
36377;SDS011;22402;42.746;23.606;2023-05-07T07:26:33;6.73;;;4.67;;
36377;SDS011;22402;42.746;23.606;2023-05-07T07:28:58;5.13;;;4.40;;
36377;SDS011;22402;42.746;23.606;2023-05-07T07:31:24;6.03;;;5.10;;
36377;SDS011;22402;42.746;23.606;2023-05-07T07:33:49;5.80;;;4.40;;
36377;SDS011;22402;42.746;23.606;2023-05-07T07:36:15;6.57;;;5.17;;
36377;SDS011;22402;42.746;23.606;2023-05-07T07:38:41;4.73;;;4.03;;
36377;SDS011;22402;42.746;23.606;2023-05-07T07:41:07;5.87;;;5.30;;
36377;SDS011;22402;42.746;23.606;2023-05-07T07:43:34;4.90;;;4.43;;
36377;SDS011;22402;42.746;23.606;2023-05-07T07:46:00;4.90;;;4.40;;
36377;SDS011;22402;42.746;23.606;2023-05-07T07:48:26;5.00;;;4.00;;
36377;SDS011;22402;42.746;23.606;2023-05-07T07:50:51;5.00;;;4.37;;
36377;SDS011;22402;42.746;23.606;2023-05-07T07:53:17;5.70;;;4.30;;
36377;SDS011;22402;42.746;23.606;2023-05-07T07:55:43;6.03;;;4.73;;
36377;SDS011;22402;42.746;23.606;2023-05-07T07:58:09;4.63;;;4.20;;
36377;SDS011;22402;42.746;23.606;2023-05-07T08:00:34;4.83;;;4.33;;
36377;SDS011;22402;42.746;23.606;2023-05-07T08:02:59;4.87;;;4.03;;
36377;SDS011;22402;42.746;23.606;2023-05-07T08:05:25;4.60;;;4.07;;
36377;SDS011;22402;42.746;23.606;2023-05-07T08:07:50;4.63;;;4.10;;
36377;SDS011;22402;42.746;23.606;2023-05-07T08:10:18;5.03;;;4.53;;
36377;SDS011;22402;42.746;23.606;2023-05-07T08:12:46;4.47;;;4.07;;
36377;SDS011;22402;42.746;23.606;2023-05-07T08:15:13;5.40;;;4.10;;
36377;SDS011;22402;42.746;23.606;2023-05-07T08:17:39;4.30;;;3.90;;
36377;SDS011;22402;42.746;23.606;2023-05-07T08:20:05;4.23;;;3.83;;
36377;SDS011;22402;42.746;23.606;2023-05-07T08:22:34;4.97;;;4.40;;
36377;SDS011;22402;42.746;23.606;2023-05-07T08:25:00;6.20;;;4.50;;
36377;SDS011;22402;42.746;23.606;2023-05-07T08:27:26;4.77;;;4.30;;
36377;SDS011;22402;42.746;23.606;2023-05-07T08:29:51;4.03;;;3.63;;
36377;SDS011;22402;42.746;23.606;2023-05-07T08:32:17;4.87;;;4.37;;
36377;SDS011;22402;42.746;23.606;2023-05-07T08:34:42;4.30;;;3.90;;
36377;SDS011;22402;42.746;23.606;2023-05-07T08:37:08;4.40;;;3.90;;
36377;SDS011;22402;42.746;23.606;2023-05-07T08:39:34;8.57;;;5.93;;
36377;SDS011;22402;42.746;23.606;2023-05-07T08:42:00;6.80;;;6.07;;
36377;SDS011;22402;42.746;23.606;2023-05-07T08:44:29;7.13;;;5.73;;
36377;SDS011;22402;42.746;23.606;2023-05-07T08:47:03;7.97;;;6.57;;
36377;SDS011;22402;42.746;23.606;2023-05-07T08:49:33;8.90;;;6.83;;
36377;SDS011;22402;42.746;23.606;2023-05-07T08:51:59;8.13;;;6.30;;
36377;SDS011;22402;42.746;23.606;2023-05-07T08:54:25;14.47;;;6.47;;
36377;SDS011;22402;42.746;23.606;2023-05-07T08:56:51;11.23;;;6.60;;
36377;SDS011;22402;42.746;23.606;2023-05-07T08:59:16;6.27;;;5.63;;
36377;SDS011;22402;42.746;23.606;2023-05-07T09:04:07;8.10;;;4.93;;
36377;SDS011;22402;42.746;23.606;2023-05-07T09:06:33;5.53;;;4.87;;
36377;SDS011;22402;42.746;23.606;2023-05-07T09:08:59;6.60;;;5.00;;
36377;SDS011;22402;42.746;23.606;2023-05-07T09:11:26;7.10;;;5.50;;
36377;SDS011;22402;42.746;23.606;2023-05-07T09:13:55;4.73;;;4.33;;
36377;SDS011;22402;42.746;23.606;2023-05-07T09:16:23;5.80;;;4.30;;
36377;SDS011;22402;42.746;23.606;2023-05-07T09:18:50;5.50;;;4.70;;
36377;SDS011;22402;42.746;23.606;2023-05-07T09:21:20;6.43;;;5.30;;
36377;SDS011;22402;42.746;23.606;2023-05-07T09:23:48;6.60;;;5.27;;
36377;SDS011;22402;42.746;23.606;2023-05-07T09:26:15;6.43;;;5.50;;
36377;SDS011;22402;42.746;23.606;2023-05-07T09:28:41;6.30;;;4.80;;
36377;SDS011;22402;42.746;23.606;2023-05-07T09:31:07;6.23;;;5.37;;
36377;SDS011;22402;42.746;23.606;2023-05-07T09:33:33;5.90;;;4.40;;
36377;SDS011;22402;42.746;23.606;2023-05-07T09:36:02;5.30;;;4.73;;
36377;SDS011;22402;42.746;23.606;2023-05-07T09:38:28;8.70;;;4.53;;
36377;SDS011;22402;42.746;23.606;2023-05-07T09:41:03;5.10;;;4.37;;
36377;SDS011;22402;42.746;23.606;2023-05-07T09:43:36;6.00;;;4.60;;
36377;SDS011;22402;42.746;23.606;2023-05-07T09:46:06;4.83;;;4.10;;
36377;SDS011;22402;42.746;23.606;2023-05-07T09:48:35;8.70;;;4.20;;
36377;SDS011;22402;42.746;23.606;2023-05-07T09:51:03;4.13;;;3.73;;
36377;SDS011;22402;42.746;23.606;2023-05-07T09:53:47;4.33;;;3.63;;
36377;SDS011;22402;42.746;23.606;2023-05-07T09:56:14;6.00;;;4.07;;
36377;SDS011;22402;42.746;23.606;2023-05-07T09:58:42;4.03;;;3.70;;
36377;SDS011;22402;42.746;23.606;2023-05-07T10:01:10;4.20;;;3.80;;
36377;SDS011;22402;42.746;23.606;2023-05-07T10:03:37;3.73;;;3.40;;
36377;SDS011;22402;42.746;23.606;2023-05-07T10:06:05;3.90;;;3.33;;
36377;SDS011;22402;42.746;23.606;2023-05-07T10:08:32;5.53;;;3.67;;
36377;SDS011;22402;42.746;23.606;2023-05-07T10:10:57;4.90;;;3.80;;
36377;SDS011;22402;42.746;23.606;2023-05-07T10:13:24;11.03;;;4.33;;
36377;SDS011;22402;42.746;23.606;2023-05-07T10:15:50;7.63;;;4.33;;
36377;SDS011;22402;42.746;23.606;2023-05-07T10:18:16;8.63;;;3.60;;
36377;SDS011;22402;42.746;23.606;2023-05-07T10:20:43;9.25;;;4.15;;
36377;SDS011;22402;42.746;23.606;2023-05-07T10:23:13;4.30;;;3.90;;
36377;SDS011;22402;42.746;23.606;2023-05-07T10:25:44;6.60;;;4.23;;
36377;SDS011;22402;42.746;23.606;2023-05-07T10:33:49;6.50;;;3.70;;
36377;SDS011;22402;42.746;23.606;2023-05-07T10:36:18;4.70;;;4.17;;
36377;SDS011;22402;42.746;23.606;2023-05-07T10:38:44;5.85;;;4.25;;
36377;SDS011;22402;42.746;23.606;2023-05-07T10:41:11;5.20;;;3.80;;
36377;SDS011;22402;42.746;23.606;2023-05-07T10:43:43;3.97;;;3.33;;
36377;SDS011;22402;42.746;23.606;2023-05-07T10:46:11;5.03;;;3.20;;
36377;SDS011;22402;42.746;23.606;2023-05-07T10:51:34;4.90;;;3.23;;
36377;SDS011;22402;42.746;23.606;2023-05-07T10:56:35;13.63;;;3.60;;
36377;SDS011;22402;42.746;23.606;2023-05-07T11:01:59;5.23;;;3.70;;
36377;SDS011;22402;42.746;23.606;2023-05-07T11:04:31;4.37;;;3.40;;
36377;SDS011;22402;42.746;23.606;2023-05-07T11:15:08;5.00;;;3.43;;
36377;SDS011;22402;42.746;23.606;2023-05-07T11:17:51;7.40;;;3.27;;
36377;SDS011;22402;42.746;23.606;2023-05-07T11:20:18;7.90;;;3.57;;
36377;SDS011;22402;42.746;23.606;2023-05-07T11:22:45;5.20;;;3.73;;
36377;SDS011;22402;42.746;23.606;2023-05-07T11:25:10;3.60;;;3.07;;
36377;SDS011;22402;42.746;23.606;2023-05-07T11:27:43;3.77;;;3.30;;
36377;SDS011;22402;42.746;23.606;2023-05-07T11:30:09;5.93;;;2.97;;
36377;SDS011;22402;42.746;23.606;2023-05-07T11:32:36;7.57;;;3.27;;
36377;SDS011;22402;42.746;23.606;2023-05-07T11:35:01;8.17;;;3.30;;
36377;SDS011;22402;42.746;23.606;2023-05-07T11:37:27;7.60;;;3.40;;
36377;SDS011;22402;42.746;23.606;2023-05-07T11:40:04;6.50;;;2.73;;
36377;SDS011;22402;42.746;23.606;2023-05-07T11:42:34;5.00;;;3.07;;
36377;SDS011;22402;42.746;23.606;2023-05-07T11:45:02;9.43;;;3.47;;
36377;SDS011;22402;42.746;23.606;2023-05-07T11:47:31;6.43;;;2.50;;
36377;SDS011;22402;42.746;23.606;2023-05-07T11:50:02;8.73;;;2.80;;
36377;SDS011;22402;42.746;23.606;2023-05-07T11:52:29;4.03;;;2.67;;
36377;SDS011;22402;42.746;23.606;2023-05-07T11:54:56;3.80;;;2.23;;
36377;SDS011;22402;42.746;23.606;2023-05-07T11:57:24;3.30;;;2.20;;
36377;SDS011;22402;42.746;23.606;2023-05-07T11:59:54;4.20;;;1.97;;
36377;SDS011;22402;42.746;23.606;2023-05-07T12:02:23;3.70;;;1.90;;
36377;SDS011;22402;42.746;23.606;2023-05-07T12:04:50;7.73;;;2.30;;
36377;SDS011;22402;42.746;23.606;2023-05-07T12:07:15;6.53;;;2.83;;
36377;SDS011;22402;42.746;23.606;2023-05-07T12:09:42;4.27;;;2.80;;
36377;SDS011;22402;42.746;23.606;2023-05-07T12:12:08;3.47;;;2.50;;
36377;SDS011;22402;42.746;23.606;2023-05-07T12:14:37;9.77;;;3.17;;
36377;SDS011;22402;42.746;23.606;2023-05-07T12:17:09;5.60;;;2.70;;
36377;SDS011;22402;42.746;23.606;2023-05-07T12:19:36;8.03;;;4.33;;
36377;SDS011;22402;42.746;23.606;2023-05-07T12:22:03;5.13;;;2.90;;
36377;SDS011;22402;42.746;23.606;2023-05-07T12:24:29;7.27;;;2.40;;
36377;SDS011;22402;42.746;23.606;2023-05-07T12:27:06;6.77;;;3.50;;
36377;SDS011;22402;42.746;23.606;2023-05-07T12:29:32;4.70;;;3.17;;
36377;SDS011;22402;42.746;23.606;2023-05-07T12:31:57;4.83;;;3.10;;
36377;SDS011;22402;42.746;23.606;2023-05-07T12:34:23;5.40;;;2.33;;
36377;SDS011;22402;42.746;23.606;2023-05-07T12:36:49;4.00;;;2.70;;
36377;SDS011;22402;42.746;23.606;2023-05-07T12:39:14;4.73;;;2.97;;
36377;SDS011;22402;42.746;23.606;2023-05-07T12:41:53;4.90;;;2.97;;
36377;SDS011;22402;42.746;23.606;2023-05-07T12:44:21;10.50;;;2.87;;
36377;SDS011;22402;42.746;23.606;2023-05-07T12:46:48;4.13;;;2.57;;
36377;SDS011;22402;42.746;23.606;2023-05-07T12:49:13;7.27;;;2.90;;
36377;SDS011;22402;42.746;23.606;2023-05-07T12:51:39;3.10;;;2.23;;
36377;SDS011;22402;42.746;23.606;2023-05-07T12:54:04;5.40;;;2.30;;
36377;SDS011;22402;42.746;23.606;2023-05-07T12:56:35;3.90;;;2.50;;
36377;SDS011;22402;42.746;23.606;2023-05-07T12:59:01;2.60;;;2.20;;
36377;SDS011;22402;42.746;23.606;2023-05-07T13:01:30;11.67;;;2.80;;
36377;SDS011;22402;42.746;23.606;2023-05-07T13:03:57;2.70;;;2.23;;
36377;SDS011;22402;42.746;23.606;2023-05-07T13:06:25;3.80;;;2.73;;
36377;SDS011;22402;42.746;23.606;2023-05-07T13:08:51;5.87;;;2.60;;
36377;SDS011;22402;42.746;23.606;2023-05-07T13:11:16;7.93;;;1.70;;
36377;SDS011;22402;42.746;23.606;2023-05-07T13:13:42;5.27;;;1.93;;
36377;SDS011;22402;42.746;23.606;2023-05-07T13:16:08;5.37;;;2.47;;
36377;SDS011;22402;42.746;23.606;2023-05-07T13:18:35;21.43;;;7.53;;
36377;SDS011;22402;42.746;23.606;2023-05-07T13:21:01;3.70;;;2.70;;
36377;SDS011;22402;42.746;23.606;2023-05-07T13:23:27;6.07;;;2.67;;
36377;SDS011;22402;42.746;23.606;2023-05-07T13:25:53;7.27;;;3.20;;
36377;SDS011;22402;42.746;23.606;2023-05-07T13:28:22;22.33;;;6.33;;
36377;SDS011;22402;42.746;23.606;2023-05-07T13:30:51;16.50;;;5.37;;
36377;SDS011;22402;42.746;23.606;2023-05-07T13:33:17;6.80;;;3.07;;
36377;SDS011;22402;42.746;23.606;2023-05-07T13:35:43;4.13;;;2.40;;
36377;SDS011;22402;42.746;23.606;2023-05-07T13:38:10;6.73;;;2.20;;
36377;SDS011;22402;42.746;23.606;2023-05-07T13:40:35;2.30;;;1.93;;
36377;SDS011;22402;42.746;23.606;2023-05-07T13:43:00;2.90;;;1.97;;
36377;SDS011;22402;42.746;23.606;2023-05-07T13:45:29;2.03;;;1.57;;
36377;SDS011;22402;42.746;23.606;2023-05-07T13:47:55;4.67;;;2.07;;
36377;SDS011;22402;42.746;23.606;2023-05-07T13:50:21;4.30;;;2.23;;
36377;SDS011;22402;42.746;23.606;2023-05-07T13:52:46;1.80;;;1.63;;
36377;SDS011;22402;42.746;23.606;2023-05-07T13:55:18;2.50;;;1.97;;
36377;SDS011;22402;42.746;23.606;2023-05-07T13:57:56;1.53;;;1.43;;
36377;SDS011;22402;42.746;23.606;2023-05-07T14:00:24;1.93;;;1.73;;
36377;SDS011;22402;42.746;23.606;2023-05-07T14:02:53;1.93;;;1.50;;
36377;SDS011;22402;42.746;23.606;2023-05-07T14:05:19;2.00;;;1.43;;
36377;SDS011;22402;42.746;23.606;2023-05-07T14:07:45;2.57;;;1.40;;
36377;SDS011;22402;42.746;23.606;2023-05-07T14:10:11;1.87;;;1.60;;
36377;SDS011;22402;42.746;23.606;2023-05-07T14:12:38;1.50;;;1.03;;
36377;SDS011;22402;42.746;23.606;2023-05-07T14:15:03;1.57;;;1.30;;
36377;SDS011;22402;42.746;23.606;2023-05-07T14:17:29;1.30;;;1.20;;
36377;SDS011;22402;42.746;23.606;2023-05-07T14:19:55;2.50;;;0.90;;
36377;SDS011;22402;42.746;23.606;2023-05-07T14:22:20;1.10;;;1.00;;
36377;SDS011;22402;42.746;23.606;2023-05-07T14:24:47;3.20;;;1.00;;
36377;SDS011;22402;42.746;23.606;2023-05-07T14:27:13;1.10;;;1.10;;
36377;SDS011;22402;42.746;23.606;2023-05-07T14:29:39;1.70;;;1.03;;
36377;SDS011;22402;42.746;23.606;2023-05-07T14:32:05;1.90;;;1.23;;
36377;SDS011;22402;42.746;23.606;2023-05-07T14:34:34;1.90;;;1.30;;
36377;SDS011;22402;42.746;23.606;2023-05-07T14:36:59;2.23;;;1.10;;
36377;SDS011;22402;42.746;23.606;2023-05-07T14:39:26;3.90;;;1.57;;
36377;SDS011;22402;42.746;23.606;2023-05-07T14:41:52;1.30;;;1.20;;
36377;SDS011;22402;42.746;23.606;2023-05-07T14:44:19;1.20;;;1.10;;
36377;SDS011;22402;42.746;23.606;2023-05-07T14:46:45;2.20;;;1.10;;
36377;SDS011;22402;42.746;23.606;2023-05-07T14:49:11;1.17;;;1.07;;
36377;SDS011;22402;42.746;23.606;2023-05-07T14:51:42;2.30;;;1.23;;
36377;SDS011;22402;42.746;23.606;2023-05-07T14:54:08;1.13;;;1.13;;
36377;SDS011;22402;42.746;23.606;2023-05-07T14:56:34;1.67;;;1.20;;
36377;SDS011;22402;42.746;23.606;2023-05-07T14:59:00;3.90;;;1.20;;
36377;SDS011;22402;42.746;23.606;2023-05-07T15:01:27;1.57;;;1.47;;
36377;SDS011;22402;42.746;23.606;2023-05-07T15:03:53;1.50;;;1.40;;
36377;SDS011;22402;42.746;23.606;2023-05-07T15:06:18;1.40;;;1.20;;
36377;SDS011;22402;42.746;23.606;2023-05-07T15:08:44;2.10;;;1.27;;
36377;SDS011;22402;42.746;23.606;2023-05-07T15:11:09;1.80;;;1.37;;
36377;SDS011;22402;42.746;23.606;2023-05-07T15:13:35;1.47;;;1.37;;
36377;SDS011;22402;42.746;23.606;2023-05-07T15:16:00;1.23;;;0.90;;
36377;SDS011;22402;42.746;23.606;2023-05-07T15:18:25;2.73;;;1.30;;
36377;SDS011;22402;42.746;23.606;2023-05-07T15:20:51;1.33;;;1.20;;
36377;SDS011;22402;42.746;23.606;2023-05-07T15:23:16;2.70;;;1.40;;
36377;SDS011;22402;42.746;23.606;2023-05-07T15:25:42;3.13;;;1.30;;
36377;SDS011;22402;42.746;23.606;2023-05-07T15:28:07;1.53;;;1.10;;
36377;SDS011;22402;42.746;23.606;2023-05-07T15:30:33;1.20;;;1.10;;
36377;SDS011;22402;42.746;23.606;2023-05-07T15:32:58;1.27;;;1.17;;
36377;SDS011;22402;42.746;23.606;2023-05-07T15:35:25;1.20;;;1.10;;
36377;SDS011;22402;42.746;23.606;2023-05-07T15:37:51;1.70;;;1.40;;
36377;SDS011;22402;42.746;23.606;2023-05-07T15:40:17;1.07;;;1.00;;
36377;SDS011;22402;42.746;23.606;2023-05-07T15:42:44;1.07;;;0.83;;
36377;SDS011;22402;42.746;23.606;2023-05-07T15:45:10;1.30;;;1.20;;
36377;SDS011;22402;42.746;23.606;2023-05-07T15:47:36;1.00;;;1.00;;
36377;SDS011;22402;42.746;23.606;2023-05-07T15:50:01;1.57;;;1.30;;
36377;SDS011;22402;42.746;23.606;2023-05-07T15:52:27;1.23;;;1.07;;
36377;SDS011;22402;42.746;23.606;2023-05-07T15:54:53;2.10;;;1.20;;
36377;SDS011;22402;42.746;23.606;2023-05-07T15:57:20;1.43;;;1.20;;
36377;SDS011;22402;42.746;23.606;2023-05-07T15:59:45;1.73;;;1.40;;
36377;SDS011;22402;42.746;23.606;2023-05-07T16:02:11;2.03;;;1.30;;
36377;SDS011;22402;42.746;23.606;2023-05-07T16:04:37;1.63;;;1.30;;
36377;SDS011;22402;42.746;23.606;2023-05-07T16:07:03;2.77;;;1.50;;
36377;SDS011;22402;42.746;23.606;2023-05-07T16:09:29;2.03;;;1.57;;
36377;SDS011;22402;42.746;23.606;2023-05-07T16:11:54;1.60;;;1.50;;
36377;SDS011;22402;42.746;23.606;2023-05-07T16:14:20;3.73;;;1.70;;
36377;SDS011;22402;42.746;23.606;2023-05-07T16:16:46;2.63;;;1.77;;
36377;SDS011;22402;42.746;23.606;2023-05-07T16:21:37;2.60;;;2.07;;
36377;SDS011;22402;42.746;23.606;2023-05-07T16:24:03;1.33;;;1.23;;
36377;SDS011;22402;42.746;23.606;2023-05-07T16:26:28;3.30;;;1.87;;
36377;SDS011;22402;42.746;23.606;2023-05-07T16:28:54;2.17;;;1.83;;
36377;SDS011;22402;42.746;23.606;2023-05-07T16:31:21;5.27;;;1.90;;
36377;SDS011;22402;42.746;23.606;2023-05-07T16:33:47;6.30;;;1.73;;
36377;SDS011;22402;42.746;23.606;2023-05-07T16:36:12;2.07;;;1.33;;
36377;SDS011;22402;42.746;23.606;2023-05-07T16:38:38;2.50;;;1.73;;
36377;SDS011;22402;42.746;23.606;2023-05-07T16:41:03;2.03;;;1.33;;
36377;SDS011;22402;42.746;23.606;2023-05-07T16:43:31;2.00;;;1.80;;
36377;SDS011;22402;42.746;23.606;2023-05-07T16:45:57;2.70;;;2.00;;
36377;SDS011;22402;42.746;23.606;2023-05-07T16:48:22;1.60;;;1.50;;
36377;SDS011;22402;42.746;23.606;2023-05-07T16:50:48;2.00;;;1.80;;
36377;SDS011;22402;42.746;23.606;2023-05-07T16:53:13;3.90;;;2.23;;
36377;SDS011;22402;42.746;23.606;2023-05-07T16:55:39;4.27;;;2.60;;
36377;SDS011;22402;42.746;23.606;2023-05-07T16:58:05;3.20;;;2.40;;
36377;SDS011;22402;42.746;23.606;2023-05-07T17:00:32;2.40;;;2.20;;
36377;SDS011;22402;42.746;23.606;2023-05-07T17:02:57;2.63;;;2.20;;
36377;SDS011;22402;42.746;23.606;2023-05-07T17:05:23;3.80;;;3.00;;
36377;SDS011;22402;42.746;23.606;2023-05-07T17:07:48;6.27;;;4.47;;
36377;SDS011;22402;42.746;23.606;2023-05-07T17:10:14;7.60;;;4.37;;
36377;SDS011;22402;42.746;23.606;2023-05-07T17:12:39;3.67;;;2.77;;
36377;SDS011;22402;42.746;23.606;2023-05-07T17:15:05;4.73;;;3.17;;
36377;SDS011;22402;42.746;23.606;2023-05-07T17:17:31;7.07;;;3.37;;
36377;SDS011;22402;42.746;23.606;2023-05-07T17:19:56;5.20;;;2.90;;
36377;SDS011;22402;42.746;23.606;2023-05-07T17:22:22;3.60;;;2.50;;
36377;SDS011;22402;42.746;23.606;2023-05-07T17:24:49;5.40;;;2.73;;
36377;SDS011;22402;42.746;23.606;2023-05-07T17:27:14;5.00;;;2.77;;
36377;SDS011;22402;42.746;23.606;2023-05-07T17:29:39;6.90;;;2.83;;
36377;SDS011;22402;42.746;23.606;2023-05-07T17:32:05;7.77;;;3.27;;
36377;SDS011;22402;42.746;23.606;2023-05-07T17:34:30;4.93;;;2.87;;
36377;SDS011;22402;42.746;23.606;2023-05-07T17:36:56;4.47;;;2.77;;
36377;SDS011;22402;42.746;23.606;2023-05-07T17:39:22;5.37;;;3.03;;
36377;SDS011;22402;42.746;23.606;2023-05-07T17:41:48;4.33;;;3.13;;
36377;SDS011;22402;42.746;23.606;2023-05-07T17:44:14;4.83;;;2.30;;
36377;SDS011;22402;42.746;23.606;2023-05-07T17:46:40;2.30;;;2.03;;
36377;SDS011;22402;42.746;23.606;2023-05-07T17:49:05;6.60;;;2.30;;
36377;SDS011;22402;42.746;23.606;2023-05-07T17:51:30;5.60;;;3.07;;
36377;SDS011;22402;42.746;23.606;2023-05-07T17:53:57;13.40;;;9.23;;
36377;SDS011;22402;42.746;23.606;2023-05-07T17:56:22;18.50;;;13.53;;
36377;SDS011;22402;42.746;23.606;2023-05-07T17:58:48;25.17;;;15.37;;
36377;SDS011;22402;42.746;23.606;2023-05-07T18:01:13;16.10;;;11.27;;
36377;SDS011;22402;42.746;23.606;2023-05-07T18:03:39;13.60;;;9.90;;
36377;SDS011;22402;42.746;23.606;2023-05-07T18:06:04;15.93;;;9.03;;
36377;SDS011;22402;42.746;23.606;2023-05-07T18:08:30;19.30;;;9.60;;
36377;SDS011;22402;42.746;23.606;2023-05-07T18:10:55;13.37;;;9.30;;
36377;SDS011;22402;42.746;23.606;2023-05-07T18:13:22;12.70;;;9.40;;
36377;SDS011;22402;42.746;23.606;2023-05-07T18:15:47;13.10;;;9.10;;
36377;SDS011;22402;42.746;23.606;2023-05-07T18:18:13;13.63;;;8.27;;
36377;SDS011;22402;42.746;23.606;2023-05-07T18:20:38;12.13;;;8.80;;
36377;SDS011;22402;42.746;23.606;2023-05-07T18:23:04;15.63;;;9.30;;